createdAt,value
2023-04-05T00:01:19.386Z,67.39
2023-04-05T00:04:05.943Z,67.76
2023-04-05T00:06:53.235Z,67.43
2023-04-05T00:09:39.183Z,67.80
2023-04-05T00:12:25.201Z,67.74
2023-04-05T00:15:11.587Z,67.60
2023-04-05T00:17:58.414Z,67.76
2023-04-05T00:20:45.067Z,67.72
2023-04-05T00:23:37.567Z,67.92
2023-04-05T00:26:23.402Z,67.77
2023-04-05T00:29:14.539Z,67.90
2023-04-05T00:32:00.963Z,67.84
2023-04-05T00:34:48.028Z,67.91
2023-04-05T00:37:34.183Z,67.66
2023-04-05T00:40:20.682Z,68.13
2023-04-05T00:43:06.664Z,68.04
2023-04-05T00:45:53.565Z,68.19
2023-04-05T00:48:40.350Z,68.17
2023-04-05T00:51:26.787Z,68.14
2023-04-05T00:54:14.490Z,68.03
2023-04-05T00:57:01.037Z,68.37
2023-04-05T00:59:47.754Z,68.13
2023-04-05T01:02:39.464Z,68.23
2023-04-05T01:05:34.485Z,68.13
2023-04-05T01:08:29.160Z,68.17
2023-04-05T01:11:16.526Z,67.96
2023-04-05T01:14:02.904Z,68.29
2023-04-05T01:16:50.292Z,68.11
2023-04-05T01:19:42.072Z,68.68
2023-04-05T01:22:38.152Z,68.28
2023-04-05T01:25:43.592Z,68.59
2023-04-05T01:28:57.940Z,68.73
2023-04-05T01:31:53.485Z,68.81
2023-04-05T01:35:10.071Z,68.69
2023-04-05T01:38:01.405Z,68.75
2023-04-05T01:40:48.058Z,68.93
2023-04-05T01:43:34.468Z,68.68
2023-04-05T01:46:21.068Z,68.59
2023-04-05T01:49:07.221Z,68.83
2023-04-05T01:51:53.407Z,68.73
2023-04-05T01:54:40.994Z,68.75
2023-04-05T01:57:28.405Z,69.20
2023-04-05T02:00:14.536Z,68.87
2023-04-05T02:03:00.644Z,68.49
2023-04-05T02:05:47.340Z,68.44
2023-04-05T02:08:33.251Z,68.78
2023-04-05T02:11:19.747Z,68.67
2023-04-05T02:14:05.468Z,69.02
2023-04-05T02:16:53.890Z,68.86
2023-04-05T02:19:46.340Z,68.77
2023-04-05T02:22:32.859Z,69.01
2023-04-05T02:25:18.988Z,68.42
2023-04-05T02:28:05.433Z,69.05
2023-04-05T02:30:51.565Z,68.71
2023-04-05T02:33:38.577Z,68.68
2023-04-05T02:36:24.544Z,68.69
2023-04-05T02:39:11.829Z,68.53
2023-04-05T02:41:59.242Z,68.66
2023-04-05T02:44:45.275Z,67.53
2023-04-05T02:47:34.257Z,68.20
2023-04-05T02:50:21.545Z,68.24
2023-04-05T02:53:07.437Z,67.40
2023-04-05T02:55:57.507Z,69.32
2023-04-05T02:58:44.309Z,69.00
2023-04-05T03:01:32.774Z,67.36
2023-04-05T03:04:19.290Z,68.67
2023-04-05T03:07:05.424Z,69.90
2023-04-05T03:09:55.634Z,69.93
2023-04-05T03:12:41.921Z,69.47
2023-04-05T03:15:32.976Z,69.45
2023-04-05T03:18:26.932Z,69.31
2023-04-05T03:21:18.118Z,69.07
2023-04-05T03:24:13.466Z,69.03
2023-04-05T03:27:06.378Z,69.12
2023-04-05T03:30:08.010Z,69.22
2023-04-05T03:33:01.588Z,68.83
2023-04-05T03:36:05.442Z,68.88
2023-04-05T03:38:56.189Z,68.82
2023-04-05T03:41:43.222Z,68.74
2023-04-05T03:44:30.328Z,68.65
2023-04-05T03:47:17.717Z,68.60
2023-04-05T03:50:05.579Z,68.41
2023-04-05T03:52:52.353Z,68.00
2023-04-05T03:55:38.922Z,68.35
2023-04-05T03:58:27.633Z,68.29
2023-04-05T04:01:15.626Z,68.19
2023-04-05T04:04:02.246Z,68.37
2023-04-05T04:06:49.351Z,68.27
2023-04-05T04:09:39.306Z,68.11
2023-04-05T04:12:28.538Z,68.28
2023-04-05T04:15:19.149Z,68.17
2023-04-05T04:18:24.401Z,68.06
2023-04-05T04:21:39.836Z,68.12
2023-04-05T04:24:51.565Z,68.04
2023-04-05T04:28:13.220Z,68.16
2023-04-05T04:31:33.910Z,68.03
2023-04-05T04:34:36.120Z,68.36
2023-04-05T04:37:33.422Z,68.19
2023-04-05T04:40:39.246Z,68.37
2023-04-05T04:43:45.313Z,66.56
2023-04-05T04:46:55.176Z,67.97
2023-04-05T04:50:05.070Z,69.04
2023-04-05T04:52:51.934Z,69.17
2023-04-05T04:55:44.370Z,69.11
2023-04-05T04:58:31.377Z,69.15
2023-04-05T05:01:25.281Z,68.76
2023-04-05T05:04:12.119Z,68.97
2023-04-05T05:06:59.624Z,69.02
2023-04-05T05:09:46.796Z,68.49
2023-04-05T05:12:33.106Z,68.80
2023-04-05T05:15:21.205Z,68.06
2023-04-05T05:18:07.164Z,68.72
2023-04-05T05:20:53.465Z,69.75
2023-04-05T05:23:39.119Z,69.45
2023-04-05T05:26:25.207Z,68.54
2023-04-05T05:29:10.855Z,68.95
2023-04-05T05:32:01.265Z,69.62
2023-04-05T05:34:48.823Z,70.88
2023-04-05T05:37:38.304Z,71.06
2023-04-05T05:40:27.022Z,70.18
2023-04-05T05:43:13.464Z,71.05
2023-04-05T05:46:02.101Z,72.99
2023-04-05T05:48:48.654Z,70.93
2023-04-05T05:51:34.561Z,71.03
2023-04-05T05:54:21.245Z,71.38
2023-04-05T05:57:08.301Z,71.90
2023-04-05T05:59:54.634Z,71.59
2023-04-05T06:02:40.764Z,71.43
2023-04-05T06:05:27.100Z,71.83
2023-04-05T06:08:13.717Z,72.84
2023-04-05T06:11:00.730Z,72.37
2023-04-05T06:13:46.710Z,72.12
2023-04-05T06:16:33.251Z,71.96
2023-04-05T06:19:21.878Z,71.72
2023-04-05T06:22:11.404Z,71.98
2023-04-05T06:24:57.664Z,71.79
2023-04-05T06:27:44.970Z,71.58
2023-04-05T06:30:32.121Z,71.32
2023-04-05T06:33:21.624Z,71.03
2023-04-05T06:36:07.851Z,70.49
2023-04-05T06:38:54.838Z,70.03
2023-04-05T06:41:41.061Z,69.44
2023-04-05T06:44:27.453Z,69.45
2023-04-05T06:47:13.462Z,69.01
2023-04-05T06:50:00.753Z,68.64
2023-04-05T06:52:46.930Z,68.31
2023-04-05T06:55:33.224Z,67.92
2023-04-05T06:58:19.861Z,67.67
2023-04-05T07:01:06.827Z,67.59
2023-04-05T07:03:53.950Z,66.98
2023-04-05T07:06:40.716Z,66.55
2023-04-05T07:09:27.396Z,65.69
2023-04-05T07:12:14.427Z,65.30
2023-04-05T07:15:00.717Z,65.04
2023-04-05T07:17:47.423Z,65.04
2023-04-05T07:20:33.642Z,64.77
2023-04-05T07:23:23.082Z,64.59
2023-04-05T07:26:09.461Z,64.28
2023-04-05T07:28:56.485Z,64.40
2023-04-05T07:31:42.577Z,64.42
2023-04-05T07:34:29.356Z,64.47
2023-04-05T07:37:15.674Z,64.07
2023-04-05T07:40:03.131Z,64.04
2023-04-05T07:42:49.236Z,64.03
2023-04-05T07:45:37.273Z,63.65
2023-04-05T07:48:24.237Z,63.81
2023-04-05T07:51:12.586Z,64.08
2023-04-05T07:54:01.176Z,64.04
2023-04-05T07:56:50.085Z,64.06
2023-04-05T07:59:36.686Z,63.58
2023-04-05T08:02:23.158Z,64.02
2023-04-05T08:05:10.092Z,63.49
2023-04-05T08:07:58.412Z,63.33
2023-04-05T08:10:44.190Z,63.23
2023-04-05T08:13:31.687Z,63.21
2023-04-05T08:16:17.894Z,62.92
2023-04-05T08:19:04.480Z,62.88
2023-04-05T08:21:50.637Z,63.54
2023-04-05T08:24:36.716Z,63.34
2023-04-05T08:27:22.920Z,62.74
2023-04-05T08:30:10.517Z,62.47
2023-04-05T08:32:56.637Z,62.28
2023-04-05T08:35:43.734Z,62.25
2023-04-05T08:38:29.775Z,61.98
2023-04-05T08:41:24.464Z,62.05
2023-04-05T08:44:11.272Z,61.80
2023-04-05T08:47:00.034Z,61.75
2023-04-05T09:13:32.986Z,60.23
2023-04-05T09:16:19.818Z,60.07
2023-04-05T09:19:06.747Z,60.02
2023-04-05T09:22:01.153Z,59.71
2023-04-05T09:24:47.845Z,60.03
2023-04-05T09:27:55.662Z,59.90
2023-04-05T09:30:46.578Z,59.58
2023-04-05T09:33:33.600Z,59.57
2023-04-05T09:36:19.333Z,58.89
2023-04-05T09:39:10.710Z,59.21
2023-04-05T09:42:08.833Z,58.98
2023-04-05T09:45:03.047Z,59.14
2023-04-05T09:47:58.108Z,59.19
2023-04-05T09:50:44.577Z,59.16
2023-04-05T09:53:30.433Z,58.85
2023-04-05T09:56:17.235Z,59.27
2023-04-05T09:59:11.342Z,59.23
2023-04-05T10:01:57.849Z,59.21
2023-04-05T10:04:45.898Z,59.42
2023-04-05T10:07:32.569Z,59.57
2023-04-05T10:10:18.447Z,59.21
2023-04-05T10:13:06.127Z,59.37
2023-04-05T10:15:54.931Z,59.48
2023-04-05T10:18:50.315Z,59.89
2023-04-05T10:21:37.924Z,59.46
2023-04-05T10:24:30.200Z,59.48
2023-04-05T10:27:27.114Z,59.57
2023-04-05T10:30:13.609Z,59.58
2023-04-05T10:33:19.355Z,59.71
2023-04-05T10:36:19.490Z,59.87
2023-04-05T10:39:13.149Z,60.30
2023-04-05T10:42:24.555Z,60.02
2023-04-05T10:45:15.526Z,60.18
2023-04-05T10:48:19.166Z,59.65
2023-04-05T10:51:05.202Z,59.43
2023-04-05T10:53:51.822Z,59.68
2023-04-05T10:56:39.620Z,59.49
2023-04-05T10:59:27.427Z,59.43
2023-04-05T11:02:17.578Z,59.09
2023-04-05T11:05:05.322Z,59.31
2023-04-05T11:07:52.318Z,59.68
2023-04-05T11:10:39.490Z,59.43
2023-04-05T11:13:49.871Z,59.45
2023-04-05T11:16:40.903Z,58.78
2023-04-05T11:19:49.207Z,59.52
2023-04-05T11:22:35.888Z,58.84
2023-04-05T11:25:25.371Z,58.42
2023-04-05T11:28:27.148Z,57.86
2023-04-05T11:31:20.733Z,57.94
2023-04-05T11:34:10.585Z,58.43
2023-04-05T11:36:56.124Z,58.55
2023-04-05T11:39:42.709Z,58.60
2023-04-05T11:42:28.941Z,58.11
2023-04-05T11:45:17.207Z,57.87
2023-04-05T11:48:13.996Z,57.47
2023-04-05T11:51:02.113Z,57.20
2023-04-05T11:53:48.774Z,56.54
2023-04-05T11:56:34.523Z,57.16
2023-04-05T11:59:20.080Z,56.82
2023-04-05T12:02:07.551Z,57.02
2023-04-05T12:04:59.894Z,56.13
2023-04-05T12:07:52.467Z,55.91
2023-04-05T12:10:37.888Z,55.96
2023-04-05T12:13:31.903Z,55.96
2023-04-05T12:16:18.147Z,55.59
2023-04-05T12:19:04.201Z,55.74
2023-04-05T12:22:14.527Z,55.78
2023-04-05T12:30:51.032Z,55.25
2023-04-05T12:33:41.084Z,55.48
2023-04-05T12:36:31.895Z,55.55
2023-04-05T12:39:17.923Z,55.40
2023-04-05T12:42:04.041Z,55.99
2023-04-05T12:45:04.292Z,54.67
2023-04-05T12:48:00.242Z,55.16
2023-04-05T12:50:48.329Z,55.02
2023-04-05T12:53:34.062Z,55.49
2023-04-05T12:56:20.629Z,55.28
2023-04-05T12:59:09.786Z,55.36
2023-04-05T13:01:55.847Z,55.15
2023-04-05T13:04:41.722Z,55.59
2023-04-05T13:07:27.736Z,55.28
2023-04-05T13:10:13.202Z,54.91
2023-04-05T13:12:58.911Z,55.18
2023-04-05T13:15:45.762Z,55.15
2023-04-05T13:18:31.614Z,55.97
2023-04-05T13:21:17.593Z,56.03
2023-04-05T13:24:03.280Z,56.70
2023-04-05T13:26:48.710Z,54.60
2023-04-05T13:29:34.917Z,54.92
2023-04-05T13:32:20.221Z,54.76
2023-04-05T13:35:06.641Z,54.40
2023-04-05T13:37:52.281Z,54.32
2023-04-05T13:40:38.322Z,54.64
2023-04-05T13:43:23.755Z,54.32
2023-04-05T13:46:09.826Z,54.28
2023-04-05T13:48:55.787Z,54.28
2023-04-05T13:51:41.995Z,54.12
2023-04-05T13:54:28.704Z,54.20
2023-04-05T13:57:14.793Z,54.08
2023-04-05T14:00:00.498Z,53.94
2023-04-05T14:02:46.722Z,53.80
2023-04-05T14:05:32.669Z,53.86
2023-04-05T14:08:18.782Z,53.77
2023-04-05T14:11:04.294Z,53.73
2023-04-05T14:13:51.241Z,53.75
2023-04-05T14:16:38.217Z,54.05
2023-04-05T14:19:24.315Z,54.64
2023-04-05T14:22:09.817Z,54.19
2023-04-05T14:24:55.837Z,53.49
2023-04-05T14:27:42.583Z,53.31
2023-04-05T14:30:28.689Z,53.16
2023-04-05T14:33:14.836Z,53.16
2023-04-05T14:36:01.177Z,53.06
2023-04-05T14:38:47.715Z,53.13
2023-04-05T14:41:34.904Z,52.96
2023-04-05T14:44:20.887Z,53.35
2023-04-05T14:47:07.245Z,53.37
2023-04-05T14:49:52.651Z,53.24
2023-04-05T14:52:40.113Z,53.36
2023-04-05T14:55:25.970Z,54.03
2023-04-05T14:58:13.782Z,53.48
2023-04-05T15:01:00.342Z,54.47
2023-04-05T15:03:48.316Z,53.48
2023-04-05T15:06:34.220Z,53.08
2023-04-05T15:09:20.902Z,53.41
2023-04-05T15:12:06.722Z,53.05
2023-04-05T15:14:56.500Z,53.05
2023-04-05T15:17:42.841Z,52.83
2023-04-05T15:20:28.998Z,53.65
2023-04-05T15:23:14.364Z,52.78
2023-04-05T15:26:00.557Z,52.86
2023-04-05T15:28:45.847Z,52.94
2023-04-05T15:31:34.286Z,52.90
2023-04-05T15:34:20.421Z,52.80
2023-04-05T15:37:07.165Z,52.72
2023-04-05T15:39:53.067Z,52.54
2023-04-05T15:42:39.066Z,52.70
2023-04-05T15:45:24.692Z,52.82
2023-04-05T15:48:13.530Z,52.46
2023-04-05T15:50:59.434Z,52.77
2023-04-05T15:53:45.555Z,52.97
2023-04-05T15:56:32.042Z,52.74
2023-04-05T15:59:17.856Z,52.81
2023-04-05T16:02:04.100Z,53.02
2023-04-05T16:04:49.718Z,52.64
2023-04-05T16:07:35.701Z,52.54
2023-04-05T16:10:21.720Z,53.02
2023-04-05T16:13:07.241Z,52.82
2023-04-05T16:15:52.815Z,53.41
2023-04-05T16:18:38.385Z,53.01
2023-04-05T16:21:24.285Z,52.67
2023-04-05T16:24:09.910Z,52.55
2023-04-05T16:26:56.830Z,52.75
2023-04-05T16:29:42.505Z,52.87
2023-04-05T16:32:28.376Z,53.10
2023-04-05T16:35:14.449Z,53.23
2023-04-05T16:38:00.353Z,53.07
2023-04-05T16:40:46.009Z,52.56
2023-04-05T16:43:33.499Z,52.85
2023-04-05T16:46:19.648Z,53.05
2023-04-05T16:49:06.308Z,53.11
2023-04-05T16:51:52.080Z,53.12
2023-04-05T16:54:38.407Z,53.65
2023-04-05T16:57:25.822Z,53.21
2023-04-05T17:00:13.537Z,53.25
2023-04-05T17:03:00.425Z,53.76
2023-04-05T17:05:48.008Z,54.01
2023-04-05T17:08:34.285Z,53.26
2023-04-05T17:11:21.722Z,53.14
2023-04-05T17:14:08.952Z,53.59
2023-04-05T17:16:55.674Z,53.25
2023-04-05T17:19:42.429Z,54.01
2023-04-05T17:22:28.610Z,53.62
2023-04-05T17:25:14.865Z,53.74
2023-04-05T17:28:01.022Z,53.66
2023-04-05T17:30:47.397Z,53.87
2023-04-05T17:33:33.759Z,54.05
2023-04-05T17:36:22.820Z,54.35
2023-04-05T17:39:09.498Z,53.76
2023-04-05T17:41:56.738Z,53.85
2023-04-05T17:44:43.165Z,54.60
2023-04-05T17:47:28.849Z,55.18
2023-04-05T17:50:15.669Z,55.39
2023-04-05T17:53:01.300Z,55.61
2023-04-05T17:55:48.914Z,55.47
2023-04-05T17:58:36.746Z,54.74
2023-04-05T18:01:24.728Z,54.80
2023-04-05T18:04:12.749Z,55.04
2023-04-05T18:07:00.251Z,55.89
2023-04-05T18:09:46.749Z,55.61
2023-04-05T18:12:34.683Z,55.75
2023-04-05T18:15:24.552Z,55.95
2023-04-05T18:18:16.639Z,57.01
2023-04-05T18:21:05.304Z,56.83
2023-04-05T18:23:56.022Z,57.37
2023-04-05T18:26:43.234Z,57.25
2023-04-05T18:29:33.427Z,57.50
2023-04-05T18:32:20.031Z,58.02
2023-04-05T18:35:09.350Z,58.37
2023-04-05T18:37:56.712Z,58.73
2023-04-05T18:40:44.401Z,58.69
2023-04-05T18:43:30.802Z,59.14
2023-04-05T18:46:19.070Z,59.05
2023-04-05T18:49:06.583Z,59.57
2023-04-05T18:51:55.876Z,59.62
2023-04-05T18:54:41.633Z,60.03
2023-04-05T18:57:27.851Z,59.78
2023-04-05T19:00:21.026Z,60.50
2023-04-05T19:03:10.677Z,60.55
2023-04-05T19:05:57.273Z,60.91
2023-04-05T19:08:43.486Z,61.03
2023-04-05T19:11:29.920Z,61.02
2023-04-05T19:14:16.774Z,61.26
2023-04-05T19:17:03.256Z,61.29
2023-04-05T19:19:49.439Z,61.24
2023-04-05T19:22:36.955Z,61.95
2023-04-05T19:25:23.732Z,61.84
2023-04-05T19:28:09.546Z,61.82
2023-04-05T19:30:55.718Z,61.71
2023-04-05T19:33:41.593Z,62.14
2023-04-05T19:36:27.481Z,62.55
2023-04-05T19:39:12.794Z,62.81
2023-04-05T19:42:00.341Z,62.76
2023-04-05T19:44:46.894Z,62.98
2023-04-05T19:47:36.563Z,63.34
2023-04-05T19:50:39.475Z,63.05
2023-04-05T19:53:54.287Z,63.05
2023-04-05T19:56:42.063Z,62.93
2023-04-05T19:59:30.646Z,63.42
2023-04-05T20:02:35.741Z,63.56
2023-04-05T20:05:42.541Z,63.24
2023-04-05T20:08:30.773Z,63.36
2023-04-05T20:11:21.277Z,63.06
2023-04-05T20:14:08.432Z,63.34
2023-04-05T20:16:56.009Z,63.38
2023-04-05T20:19:56.478Z,63.76
2023-04-05T20:22:42.111Z,64.08
2023-04-05T20:25:39.150Z,63.56
2023-04-05T20:28:38.080Z,63.76
2023-04-05T20:31:25.877Z,64.13
2023-04-05T20:34:14.225Z,64.26
2023-04-05T20:37:01.850Z,64.81
2023-04-05T20:39:48.179Z,64.35
2023-04-05T20:42:33.862Z,64.27
2023-04-05T20:45:20.337Z,64.66
2023-04-05T20:48:06.439Z,64.95
2023-04-05T20:50:52.510Z,65.24
2023-04-05T20:53:39.070Z,65.09
2023-04-05T20:56:25.262Z,65.29
2023-04-05T20:59:11.599Z,65.28
2023-04-05T21:01:58.318Z,65.73
2023-04-05T21:04:45.567Z,66.03
2023-04-05T21:07:34.223Z,65.36
2023-04-05T21:10:21.930Z,65.50
2023-04-05T21:13:07.673Z,65.51
2023-04-05T21:15:54.041Z,65.50
2023-04-05T21:18:40.053Z,65.77
2023-04-05T21:21:26.172Z,65.73
2023-04-05T21:24:11.727Z,65.19
2023-04-05T21:26:57.527Z,65.85
2023-04-05T21:29:43.718Z,65.50
2023-04-05T21:32:29.180Z,65.53
2023-04-05T21:35:15.204Z,65.35
2023-04-05T21:38:01.129Z,65.71
2023-04-05T21:40:47.812Z,66.42
2023-04-05T21:43:33.656Z,66.16
2023-04-05T21:46:20.681Z,66.05
2023-04-05T21:49:07.981Z,65.89
2023-04-05T21:51:54.034Z,65.91
2023-04-05T21:54:40.055Z,65.96
2023-04-05T21:57:26.317Z,65.63
2023-04-05T22:00:12.252Z,65.74
2023-04-05T22:03:01.295Z,65.59
2023-04-05T22:05:47.106Z,65.33
2023-04-05T22:08:34.362Z,65.45
2023-04-05T22:11:20.780Z,65.36
2023-04-05T22:14:06.739Z,65.04
2023-04-05T22:16:53.313Z,65.09
2023-04-05T22:19:58.060Z,64.61
2023-04-05T22:23:02.502Z,65.35
2023-04-05T22:26:07.508Z,64.65
2023-04-05T22:28:53.190Z,64.86
2023-04-05T22:31:39.259Z,64.80
2023-04-05T22:34:44.131Z,65.78
2023-04-05T22:37:49.196Z,65.54
2023-04-05T22:40:34.957Z,65.59
2023-04-05T22:43:39.640Z,65.31
2023-04-05T22:46:25.644Z,64.99
2023-04-05T22:49:30.760Z,65.12
2023-04-05T22:52:35.600Z,65.45
2023-04-05T22:55:41.134Z,65.10
2023-04-05T22:58:45.695Z,65.09
2023-04-05T23:01:31.658Z,65.11
2023-04-05T23:04:36.082Z,64.49
2023-04-05T23:07:40.783Z,64.86
2023-04-05T23:10:26.130Z,64.33
2023-04-05T23:13:32.196Z,63.63
2023-04-05T23:16:37.896Z,64.10
2023-04-05T23:19:23.942Z,65.35
2023-04-05T23:22:28.380Z,65.21
2023-04-05T23:25:14.495Z,65.04
2023-04-05T23:28:01.428Z,65.16
2023-04-05T23:30:49.161Z,64.73
2023-04-05T23:33:54.601Z,65.23
2023-04-05T23:36:40.791Z,65.70
2023-04-05T23:39:26.808Z,64.36
2023-04-05T23:42:13.483Z,65.38
2023-04-05T23:45:01.944Z,66.14
2023-04-05T23:48:06.902Z,65.29
2023-04-05T23:51:11.359Z,66.53
2023-04-05T23:54:16.066Z,66.09
2023-04-05T23:57:21.345Z,65.34
